createdAt,value
2023-04-14T00:00:40.209Z,3.92
2023-04-14T00:03:07.593Z,2.55
2023-04-14T00:05:34.927Z,2.97
2023-04-14T00:08:01.988Z,4.60
2023-04-14T00:10:28.856Z,4.80
2023-04-14T00:12:56.350Z,2.67
2023-04-14T00:15:23.097Z,3.28
2023-04-14T00:17:49.879Z,3.95
2023-04-14T00:20:16.680Z,6.88
2023-04-14T00:22:43.364Z,4.28
2023-04-14T00:25:10.355Z,6.30
2023-04-14T00:27:37.060Z,6.38
2023-04-14T00:30:04.088Z,4.72
2023-04-14T00:32:31.607Z,4.53
2023-04-14T00:35:00.259Z,4.50
2023-04-14T00:37:27.110Z,4.40
2023-04-14T00:39:53.858Z,2.88
2023-04-14T00:42:20.588Z,3.38
2023-04-14T00:44:48.199Z,4.95
2023-04-14T00:47:14.896Z,6.28
2023-04-14T00:49:41.594Z,4.95
2023-04-14T00:52:08.263Z,4.90
2023-04-14T00:54:34.917Z,4.68
2023-04-14T00:57:01.754Z,2.47
2023-04-14T00:59:29.771Z,3.90
2023-04-14T01:01:56.631Z,4.93
2023-04-14T01:04:23.502Z,5.80
2023-04-14T01:06:50.584Z,7.05
2023-04-14T01:09:17.240Z,6.40
2023-04-14T01:12:13.503Z,6.05
2023-04-14T01:14:55.470Z,6.85
2023-04-14T01:17:29.036Z,8.57
2023-04-14T01:19:58.909Z,5.07
2023-04-14T01:22:28.312Z,8.10
2023-04-14T01:25:18.790Z,4.28
2023-04-14T01:27:55.926Z,7.65
2023-04-14T01:30:53.698Z,4.88
2023-04-14T01:33:22.354Z,4.85
2023-04-14T01:35:56.969Z,5.30
2023-04-14T01:38:27.874Z,4.35
2023-04-14T01:40:57.523Z,5.43
2023-04-14T01:43:27.081Z,6.13
2023-04-14T01:45:56.223Z,4.18
2023-04-14T01:48:23.845Z,6.40
2023-04-14T01:50:50.620Z,7.40
2023-04-14T01:53:17.443Z,5.65
2023-04-14T01:55:44.387Z,4.07
2023-04-14T01:58:11.397Z,5.18
2023-04-14T02:00:38.332Z,2.08
2023-04-14T02:03:05.323Z,4.70
2023-04-14T02:05:33.311Z,15.23
2023-04-14T02:08:00.735Z,4.28
2023-04-14T02:10:27.981Z,6.90
2023-04-14T02:12:57.130Z,3.58
2023-04-14T02:15:24.458Z,7.07
2023-04-14T02:17:51.424Z,4.57
2023-04-14T02:20:19.997Z,7.55
2023-04-14T02:22:46.852Z,8.65
2023-04-14T02:25:13.593Z,5.82
2023-04-14T02:27:46.299Z,4.32
2023-04-14T02:30:15.073Z,7.25
2023-04-14T02:32:47.025Z,6.47
2023-04-14T02:35:26.814Z,10.98
2023-04-14T02:40:29.953Z,7.63
2023-04-14T02:42:59.846Z,8.53
2023-04-14T02:45:28.724Z,8.77
2023-04-14T02:47:57.187Z,2.80
2023-04-14T02:50:24.024Z,6.40
2023-04-14T02:52:51.509Z,8.32
2023-04-14T02:55:19.283Z,7.47
2023-04-14T02:57:50.085Z,8.77
2023-04-14T03:00:17.179Z,6.75
2023-04-14T03:02:45.021Z,9.68
2023-04-14T03:05:12.190Z,5.32
2023-04-14T03:07:39.273Z,12.63
2023-04-14T03:10:06.490Z,6.53
2023-04-14T03:12:33.375Z,6.22
2023-04-14T03:15:00.062Z,10.90
2023-04-14T03:17:26.815Z,13.40
2023-04-14T03:19:53.543Z,7.88
2023-04-14T03:22:20.785Z,9.10
2023-04-14T03:24:47.445Z,8.48
2023-04-14T03:27:16.678Z,7.00
2023-04-14T03:29:47.990Z,10.60
2023-04-14T03:32:15.355Z,9.77
2023-04-14T03:34:42.540Z,6.57
2023-04-14T03:37:10.356Z,8.07
2023-04-14T03:39:38.823Z,7.57
2023-04-14T03:42:08.060Z,8.00
2023-04-14T03:47:04.062Z,15.60
2023-04-14T03:49:33.224Z,9.40
2023-04-14T03:52:02.659Z,9.82
2023-04-14T03:54:30.609Z,13.73
2023-04-14T03:56:57.370Z,9.95
2023-04-14T03:59:25.416Z,7.80
2023-04-14T04:01:52.768Z,6.90
2023-04-14T04:04:19.799Z,11.43
2023-04-14T04:06:46.740Z,8.05
2023-04-14T04:09:15.738Z,15.80
2023-04-14T04:11:43.466Z,11.20
2023-04-14T04:14:10.299Z,14.85
2023-04-14T04:16:37.129Z,17.42
2023-04-14T04:19:07.322Z,13.50
2023-04-14T04:21:35.698Z,10.82
2023-04-14T04:24:02.588Z,11.10
2023-04-14T04:26:29.264Z,11.35
2023-04-14T04:28:58.833Z,11.13
2023-04-14T04:31:25.650Z,12.10
2023-04-14T04:33:52.331Z,19.98
2023-04-14T04:36:19.037Z,6.95
2023-04-14T04:38:46.289Z,11.73
2023-04-14T04:41:26.978Z,9.00
2023-04-14T04:43:53.998Z,9.55
2023-04-14T04:46:31.041Z,9.23
2023-04-14T04:48:57.986Z,11.60
2023-04-14T04:51:25.456Z,13.15
2023-04-14T04:53:52.600Z,19.92
2023-04-14T04:56:19.355Z,12.82
2023-04-14T04:58:46.930Z,15.77
2023-04-14T05:01:14.874Z,21.88
2023-04-14T05:03:41.704Z,14.02
2023-04-14T05:06:08.476Z,17.42
2023-04-14T05:08:35.536Z,14.57
2023-04-14T05:11:02.277Z,11.63
2023-04-14T05:13:28.976Z,11.23
2023-04-14T05:16:05.473Z,9.93
2023-04-14T05:18:32.758Z,14.60
2023-04-14T05:21:10.800Z,9.05
2023-04-14T05:23:37.894Z,5.97
2023-04-14T05:26:27.063Z,12.18
2023-04-14T05:28:52.238Z,7.30
2023-04-14T05:31:20.173Z,6.95
2023-04-14T05:33:47.061Z,8.30
2023-04-14T05:36:13.845Z,6.38
2023-04-14T05:38:40.699Z,6.90
2023-04-14T05:41:07.776Z,8.40
2023-04-14T05:43:34.815Z,4.50
2023-04-14T05:46:01.881Z,13.93
2023-04-14T05:48:30.949Z,7.40
2023-04-14T05:50:58.157Z,15.60
2023-04-14T05:53:25.215Z,9.23
2023-04-14T05:55:52.393Z,14.60
2023-04-14T05:58:19.636Z,14.60
2023-04-14T06:00:46.602Z,16.00
2023-04-14T06:03:13.564Z,8.93
2023-04-14T06:05:40.463Z,9.63
2023-04-14T06:08:07.347Z,11.55
2023-04-14T06:10:35.544Z,20.08
2023-04-14T06:13:02.278Z,6.50
2023-04-14T06:15:29.738Z,9.00
2023-04-14T06:17:56.650Z,14.00
2023-04-14T06:20:23.561Z,12.00
2023-04-14T06:22:50.457Z,10.38
2023-04-14T06:25:17.311Z,12.23
2023-04-14T06:27:47.025Z,8.70
2023-04-14T06:32:44.025Z,12.50
2023-04-14T06:35:19.029Z,11.93
2023-04-14T06:37:52.992Z,14.57
2023-04-14T06:40:19.758Z,8.40
2023-04-14T06:42:46.506Z,18.15
2023-04-14T06:45:13.506Z,16.33
2023-04-14T06:47:40.332Z,11.20
2023-04-14T06:50:07.455Z,17.33
2023-04-14T06:52:34.346Z,14.43
2023-04-14T06:55:01.140Z,12.02
2023-04-14T06:57:27.988Z,12.13
2023-04-14T06:59:54.937Z,14.43
2023-04-14T07:02:21.732Z,7.30
2023-04-14T07:04:48.560Z,8.38
2023-04-14T07:07:15.344Z,10.63
2023-04-14T07:09:42.827Z,7.07
2023-04-14T07:12:13.900Z,9.55
2023-04-14T07:14:41.294Z,7.63
2023-04-14T07:17:08.194Z,7.13
2023-04-14T07:19:34.861Z,5.65
2023-04-14T07:22:01.952Z,7.00
2023-04-14T07:24:29.201Z,7.22
2023-04-14T07:26:56.002Z,8.48
2023-04-14T07:29:22.707Z,9.07
2023-04-14T07:31:49.426Z,5.47
2023-04-14T07:34:16.273Z,9.73
2023-04-14T07:36:42.938Z,17.02
2023-04-14T07:39:09.654Z,9.82
2023-04-14T07:41:36.599Z,19.55
2023-04-14T07:44:03.540Z,14.15
2023-04-14T07:46:30.498Z,9.48
2023-04-14T07:48:57.241Z,11.45
2023-04-14T07:51:23.937Z,12.55
2023-04-14T07:53:52.990Z,10.50
2023-04-14T07:56:19.661Z,7.60
2023-04-14T07:58:46.472Z,10.73
2023-04-14T08:01:14.249Z,11.27
2023-04-14T08:03:43.583Z,12.98
2023-04-14T08:06:12.118Z,8.45
2023-04-14T08:08:39.809Z,9.48
2023-04-14T08:11:06.508Z,8.23
2023-04-14T08:13:33.174Z,10.23
2023-04-14T08:15:59.911Z,7.78
2023-04-14T08:18:26.747Z,10.77
2023-04-14T08:20:53.414Z,11.48
2023-04-14T08:23:21.228Z,11.80
2023-04-14T08:25:48.716Z,10.38
2023-04-14T08:28:15.416Z,9.27
2023-04-14T08:30:42.063Z,7.05
2023-04-14T08:33:08.823Z,11.70
2023-04-14T08:35:42.036Z,7.57
2023-04-14T08:38:09.796Z,9.57
2023-04-14T08:40:40.807Z,10.27
2023-04-14T08:43:08.002Z,14.40
2023-04-14T08:45:34.861Z,8.70
2023-04-14T08:48:02.910Z,7.43
2023-04-14T08:50:43.110Z,6.80
2023-04-14T08:53:10.584Z,10.60
2023-04-14T08:55:41.284Z,10.25
2023-04-14T08:58:10.175Z,9.88
2023-04-14T09:00:37.117Z,10.85
2023-04-14T09:03:04.674Z,9.05
2023-04-14T09:05:31.542Z,9.77
2023-04-14T09:07:58.656Z,6.43
2023-04-14T09:10:25.604Z,7.75
2023-04-14T09:12:52.721Z,6.65
2023-04-14T09:15:21.221Z,13.93
2023-04-14T09:17:48.003Z,6.72
2023-04-14T09:20:35.033Z,7.75
2023-04-14T09:23:02.479Z,8.95
2023-04-14T09:25:30.441Z,6.68
2023-04-14T09:27:57.137Z,7.25
2023-04-14T09:30:23.962Z,7.43
2023-04-14T09:32:53.561Z,8.05
2023-04-14T09:35:20.410Z,9.65
2023-04-14T09:37:48.659Z,7.20
2023-04-14T09:40:31.065Z,6.20
2023-04-14T09:42:57.949Z,5.80
2023-04-14T09:45:43.585Z,8.45
2023-04-14T09:48:10.874Z,3.15
2023-04-14T09:50:58.324Z,4.90
2023-04-14T09:53:29.739Z,5.65
2023-04-14T09:55:57.137Z,7.53
2023-04-14T09:58:26.251Z,11.02
2023-04-14T10:00:54.102Z,11.02
2023-04-14T10:03:40.144Z,6.18
2023-04-14T10:06:15.565Z,6.28
2023-04-14T10:08:44.207Z,5.53
2023-04-14T10:11:23.361Z,7.97
2023-04-14T10:13:52.393Z,9.32
2023-04-14T10:16:19.196Z,5.70
2023-04-14T10:18:46.657Z,9.32
2023-04-14T10:21:14.077Z,7.10
2023-04-14T10:23:41.470Z,9.55
2023-04-14T10:26:09.101Z,4.50
2023-04-14T10:28:36.334Z,8.02
2023-04-14T10:31:05.263Z,6.15
2023-04-14T10:33:32.049Z,6.40
2023-04-14T10:36:00.912Z,3.92
2023-04-14T10:38:44.053Z,3.90
2023-04-14T10:41:11.777Z,3.90
2023-04-14T10:43:39.581Z,6.10
2023-04-14T10:46:07.722Z,3.45
2023-04-14T10:48:38.496Z,6.28
2023-04-14T10:51:09.727Z,6.10
2023-04-14T10:53:38.854Z,4.97
2023-04-14T10:56:06.217Z,6.25
2023-04-14T10:58:34.753Z,4.72
2023-04-14T11:01:05.261Z,3.97
2023-04-14T11:03:32.749Z,5.43
2023-04-14T11:06:00.111Z,7.40
2023-04-14T11:08:28.114Z,4.45
2023-04-14T11:11:05.331Z,3.75
2023-04-14T11:13:35.445Z,5.57
2023-04-14T11:16:04.017Z,3.65
2023-04-14T11:18:31.312Z,4.00
2023-04-14T11:21:04.868Z,8.15
2023-04-14T11:23:31.735Z,4.80
2023-04-14T11:25:58.616Z,6.85
2023-04-14T11:28:32.415Z,2.53
2023-04-14T11:31:00.290Z,3.95
2023-04-14T11:33:30.749Z,3.50
2023-04-14T11:35:57.603Z,3.22
2023-04-14T11:38:25.175Z,4.28
2023-04-14T11:40:52.303Z,2.47
2023-04-14T11:43:20.850Z,4.88
2023-04-14T11:45:49.870Z,3.15
2023-04-14T11:48:18.037Z,3.20
2023-04-14T11:50:46.137Z,4.18
2023-04-14T11:53:18.963Z,4.38
2023-04-14T11:55:49.864Z,6.55
2023-04-14T11:58:21.588Z,4.25
2023-04-14T12:00:48.653Z,4.63
2023-04-14T12:03:15.975Z,6.20
2023-04-14T12:05:43.209Z,6.78
2023-04-14T12:08:12.231Z,4.47
2023-04-14T12:10:41.214Z,3.97
2023-04-14T12:13:09.076Z,3.20
2023-04-14T12:15:37.717Z,11.13
2023-04-14T12:18:12.021Z,1.80
2023-04-14T12:20:51.512Z,2.72
2023-04-14T12:25:44.924Z,2.10
2023-04-14T12:28:18.548Z,2.78
2023-04-14T12:30:52.227Z,1.52
2023-04-14T12:33:22.334Z,3.70
2023-04-14T12:35:50.903Z,3.30
2023-04-14T12:38:17.896Z,1.42
2023-04-14T12:40:49.628Z,3.38
2023-04-14T12:43:16.754Z,1.90
2023-04-14T12:45:44.442Z,2.15
2023-04-14T12:48:12.311Z,1.58
2023-04-14T12:50:39.184Z,3.58
2023-04-14T12:53:26.164Z,2.63
2023-04-14T12:56:17.325Z,2.85
2023-04-14T12:58:46.931Z,3.22
2023-04-14T13:01:14.394Z,2.13
2023-04-14T13:03:45.634Z,1.40
2023-04-14T13:06:16.178Z,2.63
2023-04-14T13:08:44.716Z,4.20
2023-04-14T13:11:12.839Z,1.10
2023-04-14T13:13:39.562Z,1.92
2023-04-14T13:16:13.519Z,2.17
2023-04-14T13:18:48.906Z,1.83
2023-04-14T13:21:15.932Z,3.85
2023-04-14T13:23:43.363Z,1.45
2023-04-14T13:26:10.384Z,5.35
2023-04-14T13:28:37.253Z,2.35
2023-04-14T13:31:04.161Z,1.52
2023-04-14T13:33:32.066Z,1.48
2023-04-14T13:35:58.764Z,2.20
2023-04-14T13:38:25.501Z,1.95
2023-04-14T13:40:52.222Z,1.52
2023-04-14T13:43:19.200Z,1.08
2023-04-14T13:45:46.923Z,1.10
2023-04-14T13:48:14.421Z,4.10
2023-04-14T13:50:41.197Z,6.85
2023-04-14T13:53:08.090Z,2.65
2023-04-14T13:55:36.107Z,1.13
2023-04-14T13:58:03.079Z,2.72
2023-04-14T14:00:29.846Z,4.07
2023-04-14T14:02:56.879Z,2.88
2023-04-14T14:05:23.845Z,3.72
2023-04-14T14:07:50.561Z,3.00
2023-04-14T14:10:17.295Z,3.20
2023-04-14T14:12:44.100Z,5.60
2023-04-14T14:15:12.480Z,4.60
2023-04-14T14:17:39.407Z,3.33
2023-04-14T14:20:08.581Z,2.00
2023-04-14T14:22:35.388Z,4.97
2023-04-14T14:25:17.564Z,2.53
2023-04-14T14:27:45.683Z,3.92
2023-04-14T14:30:13.084Z,5.10
2023-04-14T14:32:39.861Z,3.60
2023-04-14T14:35:06.986Z,4.13
2023-04-14T14:37:33.737Z,7.25
2023-04-14T14:40:00.520Z,4.68
2023-04-14T14:42:27.308Z,3.25
2023-04-14T14:44:54.273Z,3.33
2023-04-14T14:47:21.249Z,2.75
2023-04-14T14:49:59.069Z,2.92
2023-04-14T14:52:34.281Z,3.08
2023-04-14T14:55:01.765Z,3.85
2023-04-14T14:57:29.277Z,3.30
2023-04-14T14:59:56.229Z,3.38
2023-04-14T15:02:23.279Z,3.80
2023-04-14T15:04:50.276Z,2.97
2023-04-14T15:07:17.373Z,2.15
2023-04-14T15:09:46.395Z,0.80
2023-04-14T15:12:13.282Z,3.47
2023-04-14T15:14:40.150Z,1.85
2023-04-14T15:17:07.074Z,1.80
2023-04-14T15:19:33.825Z,4.90
2023-04-14T15:22:01.492Z,2.65
2023-04-14T15:24:28.353Z,3.80
2023-04-14T15:26:55.060Z,1.60
2023-04-14T15:29:24.859Z,3.47
2023-04-14T15:31:52.022Z,1.70
2023-04-14T15:34:18.863Z,2.05
2023-04-14T15:36:45.811Z,2.53
2023-04-14T15:39:12.862Z,2.28
2023-04-14T15:41:41.353Z,2.13
2023-04-14T15:44:08.022Z,1.73
2023-04-14T15:46:34.652Z,1.67
2023-04-14T15:49:01.335Z,2.45
2023-04-14T15:51:27.986Z,1.77
2023-04-14T15:53:54.651Z,2.97
2023-04-14T15:56:23.452Z,4.15
2023-04-14T15:58:51.512Z,2.78
2023-04-14T16:01:18.288Z,1.80
2023-04-14T16:03:45.239Z,2.55
2023-04-14T16:06:12.193Z,9.95
2023-04-14T16:08:38.908Z,2.75
2023-04-14T16:11:05.593Z,2.05
2023-04-14T16:13:32.303Z,2.13
2023-04-14T16:15:58.968Z,2.60
2023-04-14T16:18:25.811Z,12.75
2023-04-14T16:20:53.371Z,4.00
2023-04-14T16:23:20.109Z,4.93
2023-04-14T16:25:50.094Z,2.47
2023-04-14T16:28:16.909Z,1.52
2023-04-14T16:30:43.737Z,2.20
2023-04-14T16:33:10.566Z,2.15
2023-04-14T16:35:37.793Z,3.17
2023-04-14T16:38:08.330Z,1.50
2023-04-14T16:40:35.861Z,4.05
2023-04-14T16:43:02.611Z,6.85
2023-04-14T16:45:31.970Z,2.85
2023-04-14T16:47:58.678Z,2.28
2023-04-14T16:50:25.970Z,2.65
2023-04-14T16:52:52.712Z,3.58
2023-04-14T16:55:19.452Z,3.85
2023-04-14T16:57:46.578Z,1.77
2023-04-14T17:00:14.094Z,2.05
2023-04-14T17:02:43.796Z,9.32
2023-04-14T17:05:13.229Z,2.58
2023-04-14T17:07:40.867Z,2.95
2023-04-14T17:10:07.949Z,2.20
2023-04-14T17:12:34.676Z,2.28
2023-04-14T17:15:01.534Z,2.05
2023-04-14T17:17:28.485Z,2.53
2023-04-14T17:19:56.843Z,4.28
2023-04-14T17:22:24.562Z,6.72
2023-04-14T17:24:52.038Z,2.80
2023-04-14T17:27:19.050Z,4.75
2023-04-14T17:29:46.411Z,4.90
2023-04-14T17:32:13.372Z,5.07
2023-04-14T17:34:40.429Z,3.22
2023-04-14T17:37:07.119Z,2.63
2023-04-14T17:39:34.284Z,2.17
2023-04-14T17:42:01.626Z,2.10
2023-04-14T17:44:36.126Z,2.33
2023-04-14T17:47:04.808Z,2.30
2023-04-14T17:49:33.460Z,2.67
2023-04-14T17:52:00.253Z,3.30
2023-04-14T17:54:27.229Z,4.40
2023-04-14T17:56:53.898Z,3.10
2023-04-14T17:59:20.925Z,2.08
2023-04-14T18:01:47.762Z,3.38
2023-04-14T18:04:15.329Z,4.70
2023-04-14T18:06:42.154Z,2.60
2023-04-14T18:09:09.592Z,4.20
2023-04-14T18:11:36.690Z,5.60
2023-04-14T18:14:04.012Z,2.92
2023-04-14T18:16:31.455Z,2.67
2023-04-14T18:18:58.159Z,2.45
2023-04-14T18:21:24.884Z,3.92
2023-04-14T18:31:19.143Z,1.50
2023-04-14T18:33:45.926Z,4.60
2023-04-14T18:36:12.827Z,3.10
2023-04-14T18:38:39.649Z,2.47
2023-04-14T18:41:06.622Z,4.95
2023-04-14T18:43:33.427Z,1.73
2023-04-14T18:46:00.302Z,2.95
2023-04-14T18:48:27.600Z,2.42
2023-04-14T18:51:02.585Z,3.08
2023-04-14T18:53:29.511Z,3.55
2023-04-14T18:55:56.219Z,3.63
2023-04-14T18:58:23.836Z,2.95
2023-04-14T19:00:51.373Z,2.33
2023-04-14T19:03:18.524Z,2.90
2023-04-14T19:05:45.230Z,2.15
2023-04-14T19:08:11.899Z,3.63
2023-04-14T19:10:39.867Z,2.28
2023-04-14T19:13:06.618Z,8.48
2023-04-14T19:15:33.303Z,6.18
2023-04-14T19:18:01.029Z,4.57
2023-04-14T19:20:27.803Z,3.38
2023-04-14T19:22:54.556Z,6.32
2023-04-14T19:25:22.325Z,2.53
2023-04-14T19:27:49.403Z,3.85
2023-04-14T19:30:16.416Z,4.53
2023-04-14T19:32:43.164Z,3.38
2023-04-14T19:35:10.324Z,2.05
2023-04-14T19:37:38.343Z,3.35
2023-04-14T19:40:06.786Z,4.57
2023-04-14T19:42:33.949Z,3.08
2023-04-14T19:45:01.194Z,3.25
2023-04-14T19:47:28.200Z,4.88
2023-04-14T19:49:55.399Z,3.38
2023-04-14T19:52:22.452Z,2.88
2023-04-14T19:54:49.679Z,7.38
2023-04-14T19:57:17.951Z,3.58
2023-04-14T19:59:44.637Z,3.22
2023-04-14T20:02:13.144Z,2.83
2023-04-14T20:04:40.774Z,3.37
2023-04-14T20:07:07.730Z,3.50
2023-04-14T20:09:34.622Z,3.67
2023-04-14T20:12:02.318Z,2.58
2023-04-14T20:14:29.401Z,4.25
2023-04-14T20:16:57.015Z,5.00
2023-04-14T20:19:24.605Z,5.95
2023-04-14T20:21:51.372Z,8.60
2023-04-14T20:24:18.625Z,4.35
2023-04-14T20:26:45.492Z,4.93
2023-04-14T20:29:12.652Z,3.10
2023-04-14T20:31:41.593Z,3.03
2023-04-14T20:34:09.843Z,5.35
2023-04-14T20:36:37.456Z,4.20
2023-04-14T20:39:05.649Z,12.57
2023-04-14T20:41:36.336Z,4.90
2023-04-14T20:44:04.508Z,5.38
2023-04-14T20:46:31.254Z,6.95
2023-04-14T20:48:57.991Z,5.97
2023-04-14T20:51:25.152Z,7.68
2023-04-14T20:53:51.837Z,7.72
2023-04-14T20:56:18.512Z,6.95
2023-04-14T20:58:45.493Z,5.35
2023-04-14T21:01:12.328Z,4.50
2023-04-14T21:03:39.094Z,5.47
2023-04-14T21:06:06.667Z,7.93
2023-04-14T21:08:33.379Z,6.80
2023-04-14T21:11:15.962Z,7.10
2023-04-14T21:15:29.806Z,5.93
2023-04-14T21:16:32.693Z,5.07
2023-04-14T21:19:01.102Z,5.13
2023-04-14T21:21:27.976Z,5.97
2023-04-14T21:23:54.610Z,10.60
2023-04-14T21:26:21.938Z,7.57
2023-04-14T21:28:48.630Z,7.80
2023-04-14T21:31:15.742Z,7.78
2023-04-14T21:33:43.259Z,8.43
2023-04-14T21:36:10.706Z,8.48
2023-04-14T21:38:38.378Z,10.65
2023-04-14T21:41:05.787Z,15.02
2023-04-14T21:43:32.459Z,11.90
2023-04-14T21:45:59.235Z,12.02
2023-04-14T21:48:26.088Z,12.32
2023-04-14T21:50:52.720Z,12.10
2023-04-14T21:53:19.605Z,13.60
2023-04-14T21:55:46.830Z,13.18
2023-04-14T21:58:13.587Z,11.32
2023-04-14T22:00:41.694Z,9.25
2023-04-14T22:03:08.589Z,11.20
2023-04-14T22:05:35.412Z,10.18
2023-04-14T22:08:02.221Z,12.98
2023-04-14T22:10:32.144Z,11.35
2023-04-14T22:13:02.982Z,10.20
2023-04-14T22:15:30.558Z,12.75
2023-04-14T22:17:58.480Z,11.45
2023-04-14T22:20:26.267Z,12.07
2023-04-14T22:22:52.936Z,12.18
2023-04-14T22:25:19.589Z,11.05
2023-04-14T22:27:46.590Z,10.63
2023-04-14T22:30:13.392Z,9.75
2023-04-14T22:32:40.925Z,10.50
2023-04-14T22:35:08.023Z,10.57
2023-04-14T22:37:34.674Z,9.90
2023-04-14T22:40:02.982Z,9.57
2023-04-14T22:42:29.681Z,13.38
2023-04-14T22:44:56.347Z,10.70
2023-04-14T22:47:23.078Z,9.82
2023-04-14T22:49:50.788Z,10.93
2023-04-14T22:52:18.760Z,11.63
2023-04-14T22:54:46.612Z,11.43
2023-04-14T22:57:13.245Z,12.35
2023-04-14T22:59:39.913Z,12.45
2023-04-14T23:02:07.331Z,9.68
2023-04-14T23:04:34.106Z,10.35
2023-04-14T23:07:01.025Z,9.05
2023-04-14T23:09:30.300Z,10.52
2023-04-14T23:11:57.940Z,11.57
2023-04-14T23:14:24.778Z,8.95
2023-04-14T23:16:51.819Z,9.30
2023-04-14T23:19:18.449Z,8.27
2023-04-14T23:21:45.442Z,11.65
2023-04-14T23:24:13.141Z,6.68
2023-04-14T23:26:39.845Z,8.68
2023-04-14T23:29:06.594Z,6.35
2023-04-14T23:31:33.304Z,8.13
2023-04-14T23:34:00.036Z,8.52
2023-04-14T23:36:26.730Z,5.25
2023-04-14T23:38:54.650Z,7.13
2023-04-14T23:41:21.841Z,5.15
2023-04-14T23:43:49.517Z,4.18
2023-04-14T23:46:16.244Z,5.07
2023-04-14T23:48:43.048Z,4.18
2023-04-14T23:51:15.514Z,5.35
2023-04-14T23:53:43.592Z,3.80
2023-04-14T23:56:10.555Z,4.43
2023-04-14T23:58:37.265Z,4.03
